Hughes, North Carolina
Current Conditions -  °F | °C
As of 9:15 PM on Saturday 22 Nov 2014 (Local Time) from KTNB Reporting Station
Clear Clear  
Wind Chill: 32°   Ceiling: Unl
Heat Index: 32°   Visibility: 10mi
Dew Point: 19°   Wind: 0mph
Humidity: 58%   Direction: NA
Pressure: 30.28"   Gusts: NA
Location:  36.0227°N, 81.9499°W
Report Text: KTNB 230215Z AUTO 00000KT 10SM CLR 00/M07 A3028 RMK AO2 T00011072
Loading
Personal Weather Stations






























Interactive Weather Map New forecast layout! Learn more

10-Day Weather Forecast

Advertisements
Track Severe Weather on mobile